sensor_id;sensor_type;location;lat;lon;timestamp;pressure;altitude;pressure_sealevel;temperature;humidity
43818;BME280;29868;47.360;18.984;2022-07-23T00:02:19;100205.47;;;23.01;89.06
43818;BME280;29868;47.360;18.984;2022-07-23T00:04:45;100194.88;;;23.01;88.62
43818;BME280;29868;47.360;18.984;2022-07-23T00:07:10;100197.72;;;22.97;88.32
43818;BME280;29868;47.360;18.984;2022-07-23T00:09:35;100197.75;;;22.95;87.88
43818;BME280;29868;47.360;18.984;2022-07-23T00:12:01;100200.53;;;22.92;87.85
43818;BME280;29868;47.360;18.984;2022-07-23T00:14:26;100191.97;;;22.84;90.07
43818;BME280;29868;47.360;18.984;2022-07-23T00:16:52;100195.53;;;22.83;92.24
43818;BME280;29868;47.360;18.984;2022-07-23T00:19:17;100198.25;;;22.81;92.59
43818;BME280;29868;47.360;18.984;2022-07-23T00:21:42;100203.44;;;22.85;91.96
43818;BME280;29868;47.360;18.984;2022-07-23T00:24:08;100214.25;;;23.03;90.15
43818;BME280;29868;47.360;18.984;2022-07-23T00:26:33;100217.03;;;22.99;89.80
43818;BME280;29868;47.360;18.984;2022-07-23T00:28:58;100223.53;;;22.90;89.04
43818;BME280;29868;47.360;18.984;2022-07-23T00:31:24;100218.81;;;22.75;90.73
43818;BME280;29868;47.360;18.984;2022-07-23T00:33:49;100219.91;;;22.69;90.15
43818;BME280;29868;47.360;18.984;2022-07-23T00:36:15;100219.88;;;22.94;89.74
43818;BME280;29868;47.360;18.984;2022-07-23T00:38:41;100221.97;;;22.85;89.60
43818;BME280;29868;47.360;18.984;2022-07-23T00:41:06;100218.22;;;22.67;89.93
43818;BME280;29868;47.360;18.984;2022-07-23T00:43:31;100225.81;;;22.76;90.14
43818;BME280;29868;47.360;18.984;2022-07-23T00:45:57;100221.84;;;22.64;90.39
43818;BME280;29868;47.360;18.984;2022-07-23T00:48:22;100215.88;;;22.57;90.06
43818;BME280;29868;47.360;18.984;2022-07-23T00:50:48;100220.84;;;22.43;91.08
43818;BME280;29868;47.360;18.984;2022-07-23T00:53:14;100212.09;;;22.65;91.71
43818;BME280;29868;47.360;18.984;2022-07-23T00:55:40;100217.13;;;22.72;90.28
43818;BME280;29868;47.360;18.984;2022-07-23T00:58:06;100207.25;;;22.52;91.04
43818;BME280;29868;47.360;18.984;2022-07-23T01:00:32;100216.03;;;22.29;92.26
43818;BME280;29868;47.360;18.984;2022-07-23T01:02:57;100215.06;;;22.32;91.95
43818;BME280;29868;47.360;18.984;2022-07-23T01:05:23;100215.19;;;22.27;93.28
43818;BME280;29868;47.360;18.984;2022-07-23T01:07:49;100215.25;;;22.26;93.25
43818;BME280;29868;47.360;18.984;2022-07-23T01:10:15;100211.16;;;22.17;94.01
43818;BME280;29868;47.360;18.984;2022-07-23T01:13:06;100205.25;;;22.09;96.65
43818;BME280;29868;47.360;18.984;2022-07-23T01:15:33;100206.13;;;22.08;97.84
43818;BME280;29868;47.360;18.984;2022-07-23T01:17:59;100211.31;;;22.11;97.83
43818;BME280;29868;47.360;18.984;2022-07-23T01:20:25;100204.50;;;22.04;98.03
43818;BME280;29868;47.360;18.984;2022-07-23T01:22:51;100209.91;;;22.01;98.34
43818;BME280;29868;47.360;18.984;2022-07-23T01:25:17;100201.94;;;22.02;98.57
43818;BME280;29868;47.360;18.984;2022-07-23T01:27:43;100205.59;;;21.98;98.15
43818;BME280;29868;47.360;18.984;2022-07-23T01:30:09;100203.75;;;22.00;97.43
43818;BME280;29868;47.360;18.984;2022-07-23T01:32:35;100201.00;;;22.03;97.39
43818;BME280;29868;47.360;18.984;2022-07-23T01:35:00;100198.59;;;21.97;97.81
43818;BME280;29868;47.360;18.984;2022-07-23T01:37:25;100201.22;;;21.97;98.77
43818;BME280;29868;47.360;18.984;2022-07-23T01:39:51;100199.53;;;21.95;100.00
43818;BME280;29868;47.360;18.984;2022-07-23T01:42:16;100198.84;;;21.90;99.56
43818;BME280;29868;47.360;18.984;2022-07-23T01:44:42;100193.69;;;21.85;100.00
43818;BME280;29868;47.360;18.984;2022-07-23T01:47:07;100196.44;;;21.82;99.57
43818;BME280;29868;47.360;18.984;2022-07-23T01:49:32;100192.06;;;21.81;99.52
43818;BME280;29868;47.360;18.984;2022-07-23T01:51:58;100188.72;;;21.76;100.00
43818;BME280;29868;47.360;18.984;2022-07-23T01:54:31;100199.06;;;21.82;100.00
43818;BME280;29868;47.360;18.984;2022-07-23T01:56:57;100191.13;;;21.82;100.00
43818;BME280;29868;47.360;18.984;2022-07-23T01:59:23;100188.66;;;21.77;100.00
43818;BME280;29868;47.360;18.984;2022-07-23T02:01:48;100193.25;;;21.72;100.00
43818;BME280;29868;47.360;18.984;2022-07-23T02:04:19;100190.75;;;21.68;100.00
43818;BME280;29868;47.360;18.984;2022-07-23T02:06:45;100193.44;;;21.66;100.00
43818;BME280;29868;47.360;18.984;2022-07-23T02:09:11;100193.91;;;21.79;100.00
43818;BME280;29868;47.360;18.984;2022-07-23T02:11:37;100199.47;;;21.70;100.00
43818;BME280;29868;47.360;18.984;2022-07-23T02:14:03;100197.00;;;21.65;100.00
43818;BME280;29868;47.360;18.984;2022-07-23T02:16:28;100198.00;;;21.61;100.00
43818;BME280;29868;47.360;18.984;2022-07-23T02:18:54;100206.13;;;21.55;100.00
43818;BME280;29868;47.360;18.984;2022-07-23T02:21:20;100204.56;;;21.49;100.00
43818;BME280;29868;47.360;18.984;2022-07-23T02:23:45;100206.91;;;21.58;100.00
43818;BME280;29868;47.360;18.984;2022-07-23T02:26:10;100204.34;;;21.55;100.00
43818;BME280;29868;47.360;18.984;2022-07-23T02:28:36;100201.16;;;21.46;100.00
43818;BME280;29868;47.360;18.984;2022-07-23T02:31:01;100203.84;;;21.44;100.00
43818;BME280;29868;47.360;18.984;2022-07-23T02:33:26;100203.13;;;21.39;100.00
43818;BME280;29868;47.360;18.984;2022-07-23T02:35:52;100197.19;;;21.31;100.00
43818;BME280;29868;47.360;18.984;2022-07-23T02:38:17;100192.69;;;21.34;100.00
43818;BME280;29868;47.360;18.984;2022-07-23T02:40:43;100198.03;;;21.33;100.00
43818;BME280;29868;47.360;18.984;2022-07-23T02:43:08;100202.75;;;21.22;100.00
43818;BME280;29868;47.360;18.984;2022-07-23T02:45:33;100198.97;;;21.29;100.00
43818;BME280;29868;47.360;18.984;2022-07-23T02:47:59;100206.03;;;21.30;100.00
43818;BME280;29868;47.360;18.984;2022-07-23T02:50:24;100195.47;;;21.58;100.00
43818;BME280;29868;47.360;18.984;2022-07-23T02:52:50;100198.06;;;21.59;100.00
43818;BME280;29868;47.360;18.984;2022-07-23T02:55:15;100196.56;;;21.51;100.00
43818;BME280;29868;47.360;18.984;2022-07-23T02:57:40;100198.59;;;21.43;100.00
43818;BME280;29868;47.360;18.984;2022-07-23T03:00:07;100197.09;;;21.62;100.00
43818;BME280;29868;47.360;18.984;2022-07-23T03:02:32;100193.44;;;21.66;100.00
43818;BME280;29868;47.360;18.984;2022-07-23T03:04:58;100195.72;;;21.77;100.00
43818;BME280;29868;47.360;18.984;2022-07-23T03:07:23;100193.09;;;21.77;100.00
43818;BME280;29868;47.360;18.984;2022-07-23T03:09:48;100193.41;;;21.68;100.00
43818;BME280;29868;47.360;18.984;2022-07-23T03:12:14;100188.72;;;21.76;100.00
43818;BME280;29868;47.360;18.984;2022-07-23T03:14:40;100199.91;;;21.84;100.00
43818;BME280;29868;47.360;18.984;2022-07-23T03:17:06;100194.34;;;21.92;100.00
43818;BME280;29868;47.360;18.984;2022-07-23T03:19:31;100189.22;;;21.87;100.00
43818;BME280;29868;47.360;18.984;2022-07-23T03:21:56;100197.06;;;21.90;100.00
43818;BME280;29868;47.360;18.984;2022-07-23T03:24:22;100196.03;;;21.94;100.00
43818;BME280;29868;47.360;18.984;2022-07-23T03:26:49;100196.94;;;21.93;100.00
43818;BME280;29868;47.360;18.984;2022-07-23T03:29:14;100197.41;;;22.06;100.00
43818;BME280;29868;47.360;18.984;2022-07-23T03:31:40;100196.38;;;22.10;100.00
43818;BME280;29868;47.360;18.984;2022-07-23T03:34:05;100193.56;;;22.16;100.00
43818;BME280;29868;47.360;18.984;2022-07-23T03:36:30;100189.84;;;22.47;100.00
43818;BME280;29868;47.360;18.984;2022-07-23T03:38:56;100193.50;;;22.43;100.00
43818;BME280;29868;47.360;18.984;2022-07-23T03:41:21;100201.97;;;22.52;100.00
43818;BME280;29868;47.360;18.984;2022-07-23T03:43:47;100210.03;;;22.73;100.00
43818;BME280;29868;47.360;18.984;2022-07-23T03:46:12;100204.06;;;22.68;100.00
43818;BME280;29868;47.360;18.984;2022-07-23T03:48:38;100208.75;;;22.85;100.00
43818;BME280;29868;47.360;18.984;2022-07-23T03:51:03;100211.41;;;23.08;100.00
43818;BME280;29868;47.360;18.984;2022-07-23T03:53:29;100204.50;;;23.26;100.00
43818;BME280;29868;47.360;18.984;2022-07-23T03:55:55;100208.97;;;23.47;100.00
43818;BME280;29868;47.360;18.984;2022-07-23T03:58:20;100209.09;;;23.68;100.00
43818;BME280;29868;47.360;18.984;2022-07-23T04:00:45;100216.56;;;23.78;100.00
43818;BME280;29868;47.360;18.984;2022-07-23T04:03:11;100211.78;;;24.09;100.00
43818;BME280;29868;47.360;18.984;2022-07-23T04:05:36;100215.69;;;24.20;100.00
43818;BME280;29868;47.360;18.984;2022-07-23T04:08:02;100213.31;;;24.35;100.00
43818;BME280;29868;47.360;18.984;2022-07-23T04:10:27;100215.19;;;24.53;100.00
43818;BME280;29868;47.360;18.984;2022-07-23T04:12:52;100214.03;;;24.79;100.00
43818;BME280;29868;47.360;18.984;2022-07-23T04:15:18;100222.47;;;25.45;97.93
43818;BME280;29868;47.360;18.984;2022-07-23T04:17:43;100224.25;;;26.52;85.10
43818;BME280;29868;47.360;18.984;2022-07-23T04:20:10;100230.88;;;26.43;82.57
43818;BME280;29868;47.360;18.984;2022-07-23T04:22:36;100218.41;;;26.46;82.39
43818;BME280;29868;47.360;18.984;2022-07-23T04:25:02;100228.09;;;26.29;83.90
43818;BME280;29868;47.360;18.984;2022-07-23T04:27:27;100231.47;;;26.15;83.21
43818;BME280;29868;47.360;18.984;2022-07-23T04:29:52;100225.88;;;26.55;82.47
43818;BME280;29868;47.360;18.984;2022-07-23T04:32:18;100231.44;;;28.70;70.25
43818;BME280;29868;47.360;18.984;2022-07-23T04:34:43;100233.03;;;30.25;60.79
43818;BME280;29868;47.360;18.984;2022-07-23T04:37:08;100244.75;;;31.50;56.55
43818;BME280;29868;47.360;18.984;2022-07-23T04:39:34;100252.41;;;32.40;53.21
43818;BME280;29868;47.360;18.984;2022-07-23T04:41:59;100250.97;;;31.51;54.30
43818;BME280;29868;47.360;18.984;2022-07-23T04:44:24;100245.59;;;30.11;58.92
43818;BME280;29868;47.360;18.984;2022-07-23T04:46:50;100253.47;;;29.60;61.21
43818;BME280;29868;47.360;18.984;2022-07-23T04:49:15;100252.28;;;29.22;57.91
43818;BME280;29868;47.360;18.984;2022-07-23T04:51:40;100253.00;;;29.80;60.77
43818;BME280;29868;47.360;18.984;2022-07-23T04:54:06;100255.69;;;31.11;52.54
43818;BME280;29868;47.360;18.984;2022-07-23T04:56:31;100263.28;;;32.50;51.42
43818;BME280;29868;47.360;18.984;2022-07-23T04:58:57;100271.50;;;33.72;46.32
43818;BME280;29868;47.360;18.984;2022-07-23T05:01:22;100270.06;;;34.32;43.60
43818;BME280;29868;47.360;18.984;2022-07-23T05:03:47;100265.34;;;34.87;39.40
43818;BME280;29868;47.360;18.984;2022-07-23T05:06:14;100277.56;;;35.52;37.26
43818;BME280;29868;47.360;18.984;2022-07-23T05:08:39;100276.75;;;35.91;35.88
43818;BME280;29868;47.360;18.984;2022-07-23T05:11:05;100275.75;;;36.69;35.44
43818;BME280;29868;47.360;18.984;2022-07-23T05:13:30;100284.09;;;36.95;34.51
43818;BME280;29868;47.360;18.984;2022-07-23T05:15:56;100276.81;;;37.33;33.24
43818;BME280;29868;47.360;18.984;2022-07-23T05:18:21;100292.13;;;37.97;31.20
43818;BME280;29868;47.360;18.984;2022-07-23T05:20:47;100282.06;;;37.35;31.61
43818;BME280;29868;47.360;18.984;2022-07-23T05:23:12;100279.78;;;37.85;32.04
43818;BME280;29868;47.360;18.984;2022-07-23T05:25:38;100279.94;;;37.66;31.05
43818;BME280;29868;47.360;18.984;2022-07-23T05:28:03;100282.69;;;37.56;31.16
43818;BME280;29868;47.360;18.984;2022-07-23T05:30:28;100290.06;;;36.89;31.93
43818;BME280;29868;47.360;18.984;2022-07-23T05:32:54;100290.63;;;37.03;30.89
43818;BME280;29868;47.360;18.984;2022-07-23T05:35:19;100286.41;;;36.81;30.76
43818;BME280;29868;47.360;18.984;2022-07-23T05:37:45;100289.69;;;37.21;30.41
43818;BME280;29868;47.360;18.984;2022-07-23T05:40:11;100292.63;;;37.00;30.28
43818;BME280;29868;47.360;18.984;2022-07-23T05:42:38;100282.59;;;35.36;31.31
43818;BME280;29868;47.360;18.984;2022-07-23T05:45:04;100292.03;;;36.30;31.03
43818;BME280;29868;47.360;18.984;2022-07-23T05:47:49;100289.63;;;37.31;28.73
43818;BME280;29868;47.360;18.984;2022-07-23T05:50:15;100289.47;;;38.41;27.63
43818;BME280;29868;47.360;18.984;2022-07-23T05:52:41;100294.91;;;39.62;27.00
43818;BME280;29868;47.360;18.984;2022-07-23T05:55:08;100293.34;;;40.51;25.11
43818;BME280;29868;47.360;18.984;2022-07-23T05:57:34;100287.53;;;39.88;24.71
43818;BME280;29868;47.360;18.984;2022-07-23T05:59:59;100282.84;;;37.72;26.65
43818;BME280;29868;47.360;18.984;2022-07-23T06:02:25;100287.56;;;38.60;26.83
43818;BME280;29868;47.360;18.984;2022-07-23T06:04:50;100285.00;;;39.36;25.55
43818;BME280;29868;47.360;18.984;2022-07-23T06:07:15;100290.63;;;40.26;24.73
43818;BME280;29868;47.360;18.984;2022-07-23T06:09:41;100291.97;;;40.71;23.77
43818;BME280;29868;47.360;18.984;2022-07-23T06:12:07;100288.22;;;40.89;23.31
43818;BME280;29868;47.360;18.984;2022-07-23T06:14:32;100285.16;;;41.00;23.63
43818;BME280;29868;47.360;18.984;2022-07-23T06:16:58;100293.09;;;41.57;22.37
43818;BME280;29868;47.360;18.984;2022-07-23T06:19:24;100283.84;;;40.47;23.00
43818;BME280;29868;47.360;18.984;2022-07-23T06:21:49;100273.97;;;40.62;24.29
43818;BME280;29868;47.360;18.984;2022-07-23T06:24:15;100269.94;;;39.66;24.62
43818;BME280;29868;47.360;18.984;2022-07-23T06:26:40;100269.25;;;39.56;24.68
43818;BME280;29868;47.360;18.984;2022-07-23T06:29:06;100265.94;;;40.52;24.55
43818;BME280;29868;47.360;18.984;2022-07-23T06:31:31;100268.50;;;40.70;24.27
43818;BME280;29868;47.360;18.984;2022-07-23T06:33:57;100273.09;;;41.33;23.24
43818;BME280;29868;47.360;18.984;2022-07-23T06:36:22;100277.25;;;42.07;21.67
43818;BME280;29868;47.360;18.984;2022-07-23T06:38:47;100271.94;;;41.59;22.34
43818;BME280;29868;47.360;18.984;2022-07-23T06:41:13;100278.72;;;41.63;22.45
43818;BME280;29868;47.360;18.984;2022-07-23T06:43:38;100273.06;;;41.96;23.17
43818;BME280;29868;47.360;18.984;2022-07-23T06:46:04;100271.72;;;42.15;22.50
43818;BME280;29868;47.360;18.984;2022-07-23T06:48:29;100279.75;;;42.54;22.60
43818;BME280;29868;47.360;18.984;2022-07-23T06:50:55;100275.84;;;42.71;22.03
43818;BME280;29868;47.360;18.984;2022-07-23T06:53:21;100280.50;;;42.48;21.96
43818;BME280;29868;47.360;18.984;2022-07-23T06:55:46;100280.69;;;42.46;22.13
43818;BME280;29868;47.360;18.984;2022-07-23T06:58:11;100272.75;;;42.89;21.45
43818;BME280;29868;47.360;18.984;2022-07-23T07:00:39;100283.25;;;41.79;21.67
43818;BME280;29868;47.360;18.984;2022-07-23T07:03:04;100270.63;;;41.47;22.16
43818;BME280;29868;47.360;18.984;2022-07-23T07:05:29;100272.38;;;40.92;23.46
43818;BME280;29868;47.360;18.984;2022-07-23T07:07:55;100266.28;;;39.92;24.51
43818;BME280;29868;47.360;18.984;2022-07-23T07:10:21;100269.84;;;39.93;25.29
43818;BME280;29868;47.360;18.984;2022-07-23T07:12:46;100254.00;;;38.61;25.77
43818;BME280;29868;47.360;18.984;2022-07-23T07:15:12;100253.94;;;37.91;27.30
43818;BME280;29868;47.360;18.984;2022-07-23T07:17:37;100246.38;;;37.21;28.82
43818;BME280;29868;47.360;18.984;2022-07-23T07:20:03;100250.16;;;37.01;29.01
43818;BME280;29868;47.360;18.984;2022-07-23T07:22:29;100248.88;;;36.29;28.87
43818;BME280;29868;47.360;18.984;2022-07-23T07:24:54;100241.78;;;36.09;30.24
43818;BME280;29868;47.360;18.984;2022-07-23T07:27:20;100232.41;;;36.22;30.33
43818;BME280;29868;47.360;18.984;2022-07-23T07:29:45;100237.94;;;36.87;29.75
43818;BME280;29868;47.360;18.984;2022-07-23T07:32:11;100238.22;;;36.84;29.63
43818;BME280;29868;47.360;18.984;2022-07-23T07:34:36;100241.31;;;36.62;29.20
43818;BME280;29868;47.360;18.984;2022-07-23T07:37:01;100229.41;;;35.96;29.62
43818;BME280;29868;47.360;18.984;2022-07-23T07:39:27;100230.66;;;36.50;28.86
43818;BME280;29868;47.360;18.984;2022-07-23T07:41:52;100242.81;;;36.74;29.46
43818;BME280;29868;47.360;18.984;2022-07-23T07:44:17;100243.00;;;37.10;29.07
43818;BME280;29868;47.360;18.984;2022-07-23T07:46:43;100242.34;;;36.98;28.57
43818;BME280;29868;47.360;18.984;2022-07-23T07:49:08;100240.47;;;36.89;27.39
43818;BME280;29868;47.360;18.984;2022-07-23T07:51:34;100246.81;;;36.70;27.72
43818;BME280;29868;47.360;18.984;2022-07-23T07:53:59;100241.66;;;36.86;29.16
43818;BME280;29868;47.360;18.984;2022-07-23T07:56:24;100232.47;;;37.07;28.46
43818;BME280;29868;47.360;18.984;2022-07-23T07:58:50;100236.91;;;36.61;27.71
43818;BME280;29868;47.360;18.984;2022-07-23T08:01:15;100228.72;;;36.70;27.82
43818;BME280;29868;47.360;18.984;2022-07-23T08:03:42;100230.69;;;37.15;28.29
43818;BME280;29868;47.360;18.984;2022-07-23T08:06:07;100233.34;;;36.97;27.84
43818;BME280;29868;47.360;18.984;2022-07-23T08:08:33;100230.06;;;37.04;27.92
43818;BME280;29868;47.360;18.984;2022-07-23T08:10:58;100235.63;;;36.92;28.61
43818;BME280;29868;47.360;18.984;2022-07-23T08:13:24;100240.84;;;37.13;27.32
43818;BME280;29868;47.360;18.984;2022-07-23T08:15:49;100237.94;;;37.52;26.76
43818;BME280;29868;47.360;18.984;2022-07-23T08:18:14;100232.88;;;37.39;27.44
43818;BME280;29868;47.360;18.984;2022-07-23T08:20:40;100244.69;;;37.11;27.68
43818;BME280;29868;47.360;18.984;2022-07-23T08:23:07;100229.94;;;36.95;27.34
43818;BME280;29868;47.360;18.984;2022-07-23T08:25:41;100230.16;;;37.12;27.34
43818;BME280;29868;47.360;18.984;2022-07-23T08:28:12;100231.38;;;37.55;27.06
43818;BME280;29868;47.360;18.984;2022-07-23T08:30:39;100226.34;;;37.95;26.43
43818;BME280;29868;47.360;18.984;2022-07-23T08:33:12;100235.97;;;38.08;24.73
43818;BME280;29868;47.360;18.984;2022-07-23T08:35:49;100240.97;;;38.38;26.28
43818;BME280;29868;47.360;18.984;2022-07-23T08:38:17;100237.72;;;38.61;25.56
43818;BME280;29868;47.360;18.984;2022-07-23T08:40:45;100243.75;;;38.11;25.12
43818;BME280;29868;47.360;18.984;2022-07-23T08:43:13;100240.69;;;38.06;26.21
43818;BME280;29868;47.360;18.984;2022-07-23T08:45:41;100244.53;;;37.85;26.50
43818;BME280;29868;47.360;18.984;2022-07-23T08:48:27;100246.56;;;38.19;26.58
43818;BME280;29868;47.360;18.984;2022-07-23T08:50:56;100241.47;;;38.68;25.24
43818;BME280;29868;47.360;18.984;2022-07-23T08:53:23;100235.06;;;38.25;25.79
43818;BME280;29868;47.360;18.984;2022-07-23T08:55:51;100237.25;;;38.39;25.61
43818;BME280;29868;47.360;18.984;2022-07-23T08:58:17;100230.72;;;38.32;25.61
43818;BME280;29868;47.360;18.984;2022-07-23T09:00:43;100233.72;;;38.73;25.63
43818;BME280;29868;47.360;18.984;2022-07-23T09:03:17;100229.63;;;38.95;25.08
43818;BME280;29868;47.360;18.984;2022-07-23T09:05:44;100224.06;;;39.13;24.99
43818;BME280;29868;47.360;18.984;2022-07-23T09:08:14;100226.13;;;39.19;24.09
43818;BME280;29868;47.360;18.984;2022-07-23T09:13:38;100224.00;;;39.39;24.10
43818;BME280;29868;47.360;18.984;2022-07-23T09:16:08;100228.53;;;39.22;25.56
43818;BME280;29868;47.360;18.984;2022-07-23T09:18:52;100228.66;;;39.63;24.44
43818;BME280;29868;47.360;18.984;2022-07-23T09:31:27;100217.84;;;38.86;23.91
43818;BME280;29868;47.360;18.984;2022-07-23T09:34:29;100213.16;;;38.97;24.15
43818;BME280;29868;47.360;18.984;2022-07-23T09:37:11;100223.22;;;39.12;25.01
43818;BME280;29868;47.360;18.984;2022-07-23T09:39:39;100220.13;;;38.99;24.62
43818;BME280;29868;47.360;18.984;2022-07-23T09:42:15;100220.63;;;39.29;24.96
43818;BME280;29868;47.360;18.984;2022-07-23T09:44:46;100214.16;;;38.87;24.38
43818;BME280;29868;47.360;18.984;2022-07-23T09:47:12;100213.94;;;38.81;25.65
43818;BME280;29868;47.360;18.984;2022-07-23T09:49:38;100215.97;;;39.21;23.94
43818;BME280;29868;47.360;18.984;2022-07-23T09:52:04;100215.53;;;39.34;23.52
43818;BME280;29868;47.360;18.984;2022-07-23T09:54:33;100209.63;;;39.12;23.83
43818;BME280;29868;47.360;18.984;2022-07-23T09:57:10;100202.78;;;39.42;24.29
43818;BME280;29868;47.360;18.984;2022-07-23T09:59:41;100201.63;;;39.61;24.40
43818;BME280;29868;47.360;18.984;2022-07-23T10:02:09;100204.25;;;39.79;23.05
43818;BME280;29868;47.360;18.984;2022-07-23T10:04:36;100199.78;;;39.70;23.10
43818;BME280;29868;47.360;18.984;2022-07-23T10:07:04;100198.13;;;39.94;23.80
43818;BME280;29868;47.360;18.984;2022-07-23T10:09:32;100190.63;;;40.04;23.35
43818;BME280;29868;47.360;18.984;2022-07-23T10:12:02;100192.97;;;39.66;23.30
43818;BME280;29868;47.360;18.984;2022-07-23T10:14:40;100179.75;;;39.87;22.74
43818;BME280;29868;47.360;18.984;2022-07-23T10:17:06;100187.91;;;40.04;23.23
43818;BME280;29868;47.360;18.984;2022-07-23T10:19:32;100183.16;;;40.14;22.37
43818;BME280;29868;47.360;18.984;2022-07-23T10:38:46;100176.47;;;40.41;23.08
43818;BME280;29868;47.360;18.984;2022-07-23T10:41:13;100173.91;;;40.56;22.92
43818;BME280;29868;47.360;18.984;2022-07-23T10:43:38;100166.81;;;40.22;23.32
43818;BME280;29868;47.360;18.984;2022-07-23T10:46:24;100165.16;;;40.13;23.26
43818;BME280;29868;47.360;18.984;2022-07-23T10:49:26;100172.06;;;40.40;23.22
43818;BME280;29868;47.360;18.984;2022-07-23T10:52:25;100157.13;;;40.11;22.82
43818;BME280;29868;47.360;18.984;2022-07-23T10:55:38;100155.97;;;39.98;22.34
43818;BME280;29868;47.360;18.984;2022-07-23T10:57:49;100145.94;;;39.90;21.22
43818;BME280;29868;47.360;18.984;2022-07-23T11:00:19;100141.81;;;40.10;22.57
43818;BME280;29868;47.360;18.984;2022-07-23T11:02:46;100138.22;;;40.34;23.22
43818;BME280;29868;47.360;18.984;2022-07-23T11:05:17;100141.66;;;40.12;22.33
43818;BME280;29868;47.360;18.984;2022-07-23T11:10:42;100133.34;;;40.22;21.72
43818;BME280;29868;47.360;18.984;2022-07-23T11:13:28;100125.69;;;40.09;22.42
43818;BME280;29868;47.360;18.984;2022-07-23T11:24:14;100121.19;;;40.41;20.92
43818;BME280;29868;47.360;18.984;2022-07-23T11:31:55;100105.94;;;40.31;21.70
43818;BME280;29868;47.360;18.984;2022-07-23T11:34:34;100115.84;;;40.16;21.85
43818;BME280;29868;47.360;18.984;2022-07-23T11:37:01;100110.41;;;39.92;22.10
43818;BME280;29868;47.360;18.984;2022-07-23T11:39:29;100107.66;;;40.24;22.01
43818;BME280;29868;47.360;18.984;2022-07-23T11:41:56;100103.38;;;40.30;22.71
43818;BME280;29868;47.360;18.984;2022-07-23T11:44:29;100105.41;;;40.36;22.36
43818;BME280;29868;47.360;18.984;2022-07-23T11:46:58;100097.69;;;40.56;21.65
43818;BME280;29868;47.360;18.984;2022-07-23T11:49:25;100093.97;;;40.41;21.96
43818;BME280;29868;47.360;18.984;2022-07-23T11:52:06;100089.47;;;40.64;21.75
43818;BME280;29868;47.360;18.984;2022-07-23T11:54:33;100085.31;;;40.84;20.51
43818;BME280;29868;47.360;18.984;2022-07-23T11:56:59;100093.03;;;41.04;22.34
43818;BME280;29868;47.360;18.984;2022-07-23T11:59:26;100085.97;;;40.87;21.13
43818;BME280;29868;47.360;18.984;2022-07-23T12:02:00;100078.28;;;40.90;20.44
43818;BME280;29868;47.360;18.984;2022-07-23T12:04:43;100071.84;;;40.83;21.15
43818;BME280;29868;47.360;18.984;2022-07-23T12:10:00;100072.66;;;40.92;19.95
43818;BME280;29868;47.360;18.984;2022-07-23T12:12:26;100061.78;;;40.83;20.77
43818;BME280;29868;47.360;18.984;2022-07-23T12:14:57;100057.31;;;40.91;19.83
43818;BME280;29868;47.360;18.984;2022-07-23T12:17:31;100061.84;;;40.75;19.86
43818;BME280;29868;47.360;18.984;2022-07-23T12:19:57;100054.38;;;40.77;21.04
43818;BME280;29868;47.360;18.984;2022-07-23T12:22:26;100053.72;;;40.67;20.26
43818;BME280;29868;47.360;18.984;2022-07-23T12:25:08;100052.75;;;40.52;20.55
43818;BME280;29868;47.360;18.984;2022-07-23T12:27:35;100053.94;;;40.89;20.32
43818;BME280;29868;47.360;18.984;2022-07-23T12:30:20;100045.88;;;41.26;19.88
43818;BME280;29868;47.360;18.984;2022-07-23T12:32:48;100040.53;;;41.10;19.49
43818;BME280;29868;47.360;18.984;2022-07-23T12:35:14;100042.56;;;40.85;19.79
43818;BME280;29868;47.360;18.984;2022-07-23T12:37:42;100046.94;;;40.63;20.36
43818;BME280;29868;47.360;18.984;2022-07-23T12:40:24;100035.59;;;39.96;19.80
43818;BME280;29868;47.360;18.984;2022-07-23T12:45:19;100028.84;;;39.75;20.62
43818;BME280;29868;47.360;18.984;2022-07-23T12:48:18;100028.13;;;39.98;20.16
43818;BME280;29868;47.360;18.984;2022-07-23T12:50:49;100025.09;;;39.76;20.30
43818;BME280;29868;47.360;18.984;2022-07-23T12:53:16;100029.72;;;39.59;20.17
43818;BME280;29868;47.360;18.984;2022-07-23T12:55:43;100022.91;;;39.55;20.04
43818;BME280;29868;47.360;18.984;2022-07-23T12:58:12;100008.31;;;39.24;20.80
43818;BME280;29868;47.360;18.984;2022-07-23T13:05:50;100009.59;;;38.87;22.15
43818;BME280;29868;47.360;18.984;2022-07-23T13:08:16;100002.94;;;38.65;21.87
43818;BME280;29868;47.360;18.984;2022-07-23T13:10:41;100003.09;;;38.72;22.74
43818;BME280;29868;47.360;18.984;2022-07-23T13:13:10;100007.13;;;39.26;22.21
43818;BME280;29868;47.360;18.984;2022-07-23T13:15:35;100003.34;;;38.94;22.76
43818;BME280;29868;47.360;18.984;2022-07-23T13:18:01;99999.13;;;39.00;22.80
43818;BME280;29868;47.360;18.984;2022-07-23T13:20:26;99985.72;;;39.56;21.87
43818;BME280;29868;47.360;18.984;2022-07-23T13:22:51;99987.84;;;39.85;21.51
43818;BME280;29868;47.360;18.984;2022-07-23T13:25:17;99985.59;;;39.97;21.89
43818;BME280;29868;47.360;18.984;2022-07-23T13:27:42;99977.69;;;40.26;20.73
43818;BME280;29868;47.360;18.984;2022-07-23T13:30:08;99984.03;;;40.50;21.27
43818;BME280;29868;47.360;18.984;2022-07-23T13:32:36;99975.97;;;40.88;20.65
43818;BME280;29868;47.360;18.984;2022-07-23T13:35:01;99971.28;;;40.81;19.76
43818;BME280;29868;47.360;18.984;2022-07-23T13:37:27;99971.75;;;40.62;19.49